Time;durP1;ratioP1;P1;durP2;ratioP2;P2;SDS_P1;SDS_P2;PMS_P1;PMS_P2;Temp;Humidity;BMP_temperature;BMP_pressure;BME280_temperature;BME280_humidity;BME280_pressure;Samples;Min_cycle;Max_cycle;Signal;HPM_P1;HPM_P2
2020/12/15 00:00:13;;;;;;;36.28;17.70;;;;;;;1.99;78.77;100841.95;1739200;82;21854;-68
2020/12/15 00:02:41;;;;;;;43.42;20.52;;;;;;;1.97;78.80;100840.74;1739224;81;21368;-69
2020/12/15 00:05:09;;;;;;;43.48;21.02;;;;;;;1.98;78.83;100845.66;1743711;81;21172;-68
2020/12/15 00:07:37;;;;;;;58.87;27.95;;;;;;;1.95;78.86;100841.83;1752430;81;21340;-70
2020/12/15 00:10:05;;;;;;;59.00;29.63;;;;;;;1.94;78.89;100845.02;1752535;82;21388;-69
2020/12/15 00:12:32;;;;;;;47.27;21.25;;;;;;;1.96;78.96;100842.23;1752055;82;21894;-69
2020/12/15 00:15:00;;;;;;;47.53;20.43;;;;;;;1.96;78.88;100851.19;1752574;81;21405;-66
2020/12/15 00:17:27;;;;;;;43.80;18.90;;;;;;;1.94;78.82;100851.78;1752563;81;21399;-68
2020/12/15 00:19:55;;;;;;;41.25;18.90;;;;;;;1.93;78.90;100853.27;1752495;81;21382;-68
2020/12/15 00:22:22;;;;;;;42.93;19.10;;;;;;;1.90;78.97;100851.19;1752564;81;21403;-70
2020/12/15 00:24:50;;;;;;;41.02;16.82;;;;;;;1.92;79.10;100859.16;1752472;81;21164;-69
2020/12/15 00:27:17;;;;;;;37.88;15.50;;;;;;;1.90;79.02;100852.54;1752584;82;21402;-69
2020/12/15 00:29:44;;;;;;;36.68;15.88;;;;;;;1.91;79.05;100856.95;1725075;81;21368;-68
2020/12/15 00:32:12;;;;;;;33.53;14.10;;;;;;;1.93;78.96;100855.47;1752563;81;21147;-69
2020/12/15 00:34:40;;;;;;;38.13;18.95;;;;;;;1.96;78.92;100863.84;1752492;81;21215;-69
2020/12/15 00:37:09;;;;;;;44.33;21.07;;;;;;;1.90;78.75;100855.73;1752632;81;21263;-69
2020/12/15 00:39:37;;;;;;;44.73;20.20;;;;;;;1.87;78.81;100857.34;1752387;81;21918;-69
2020/12/15 00:42:05;;;;;;;43.38;18.12;;;;;;;1.87;78.86;100856.85;1752616;81;21437;-68
2020/12/15 00:44:33;;;;;;;33.25;14.70;;;;;;;1.89;78.83;100858.08;1752638;81;21153;-68
2020/12/15 00:47:03;;;;;;;34.75;16.52;;;;;;;1.90;78.81;100857.09;1752546;82;21153;-69
2020/12/15 00:49:30;;;;;;;40.50;18.15;;;;;;;1.89;78.78;100864.83;1752802;81;21521;-67
2020/12/15 00:51:58;;;;;;;42.93;17.98;;;;;;;1.88;78.80;100868.52;1752591;81;21922;-69
2020/12/15 00:54:25;;;;;;;41.18;17.90;;;;;;;1.89;78.87;100864.83;1752494;81;21160;-68
2020/12/15 00:56:53;;;;;;;35.75;14.68;;;;;;;1.91;78.89;100866.91;1752417;82;21176;-69
2020/12/15 00:59:20;;;;;;;38.80;15.05;;;;;;;1.95;78.94;100870.20;1752614;82;21153;-69
2020/12/15 01:01:48;;;;;;;39.23;15.75;;;;;;;2.00;78.95;100863.45;1752478;82;21160;-68
2020/12/15 01:04:16;;;;;;;37.55;15.25;;;;;;;2.02;78.88;100866.02;1723545;82;21447;-68
2020/12/15 01:06:50;;;;;;;41.08;16.50;;;;;;;2.04;78.91;100870.30;1752514;81;21160;-67
2020/12/15 01:09:20;;;;;;;39.50;16.52;;;;;;;2.05;78.84;100871.16;1752269;81;21153;-68
2020/12/15 01:11:47;;;;;;;38.53;15.03;;;;;;;2.07;78.82;100867.83;1752435;81;22006;-69
2020/12/15 01:14:16;;;;;;;33.65;14.18;;;;;;;2.08;78.81;100867.70;1752260;81;21137;-69
2020/12/15 01:16:45;;;;;;;39.65;16.65;;;;;;;2.12;78.82;100861.04;1752263;82;21322;-68
2020/12/15 01:19:13;;;;;;;35.17;15.90;;;;;;;2.14;78.69;100860.41;1723312;82;21164;-69
2020/12/15 01:21:40;;;;;;;41.73;16.48;;;;;;;2.13;78.69;100857.34;1752265;81;21137;-68
2020/12/15 01:24:09;;;;;;;41.00;16.52;;;;;;;2.13;78.68;100858.70;1752325;82;21575;-68
2020/12/15 01:26:39;;;;;;;40.95;15.43;;;;;;;2.15;78.64;100862.62;1748378;81;21371;-69
2020/12/15 01:29:07;;;;;;;31.93;14.00;;;;;;;2.14;78.53;100856.86;1752612;81;21212;-69
2020/12/15 01:31:36;;;;;;;37.10;15.38;;;;;;;2.12;78.52;100847.53;1752525;82;21420;-68
2020/12/15 01:34:09;;;;;;;38.60;16.25;;;;;;;2.12;78.54;100846.67;1750755;81;21149;-69
2020/12/15 01:36:41;;;;;;;37.90;16.35;;;;;;;2.11;78.62;100850.36;1751149;81;22229;-69
2020/12/15 01:39:10;;;;;;;39.75;15.70;;;;;;;2.11;78.67;100857.98;1752638;81;21295;-67
2020/12/15 01:41:39;;;;;;;32.78;14.35;;;;;;;2.12;78.63;100857.48;1751020;81;21267;-69
2020/12/15 01:44:07;;;;;;;34.18;14.15;;;;;;;2.13;78.56;100868.16;1752510;81;21343;-69
2020/12/15 01:46:37;;;;;;;35.73;14.05;;;;;;;2.15;78.57;100867.53;1751772;81;21144;-69
2020/12/15 01:49:05;;;;;;;32.38;14.25;;;;;;;2.18;78.57;100867.77;1752735;82;21846;-67
2020/12/15 01:51:34;;;;;;;33.02;14.55;;;;;;;2.17;78.56;100862.86;1752174;81;21451;-68
2020/12/15 01:54:04;;;;;;;29.65;13.25;;;;;;;2.19;78.58;100853.26;1752445;81;21152;-68
2020/12/15 01:56:33;;;;;;;28.15;13.03;;;;;;;2.20;78.54;100855.83;1751957;81;21145;-69
2020/12/15 01:59:03;;;;;;;29.95;11.93;;;;;;;2.19;78.46;100854.61;1700826;82;21149;-68
2020/12/15 02:01:46;;;;;;;26.77;11.85;;;;;;;2.15;78.37;100854.52;1723731;82;21274;-68
2020/12/15 02:04:16;;;;;;;26.25;11.97;;;;;;;2.13;78.34;100853.79;1751236;81;21284;-68
2020/12/15 02:06:51;;;;;;;28.27;12.10;;;;;;;2.11;78.34;100860.68;1751103;81;21152;-69
2020/12/15 02:09:19;;;;;;;28.90;12.82;;;;;;;2.09;78.35;100858.60;1723341;82;21121;-69
2020/12/15 02:11:54;;;;;;;24.57;11.45;;;;;;;2.06;78.36;100862.06;1750898;82;21282;-68
2020/12/15 02:14:22;;;;;;;30.82;12.18;;;;;;;2.01;78.38;100856.20;1752515;82;21921;-69
2020/12/15 02:16:50;;;;;;;29.18;12.07;;;;;;;1.98;78.43;100857.81;1752527;82;21295;-68
2020/12/15 02:19:20;;;;;;;28.30;12.50;;;;;;;1.96;78.51;100855.24;1752753;82;21156;-67
2020/12/15 02:21:55;;;;;;;25.27;11.85;;;;;;;1.93;78.70;100855.97;1752414;81;21367;-67
2020/12/15 02:24:24;;;;;;;29.18;12.88;;;;;;;1.94;78.81;100850.92;1752396;82;21446;-68
2020/12/15 02:26:56;;;;;;;27.52;10.63;;;;;;;1.94;78.92;100856.33;1751691;81;21379;-68
2020/12/15 02:29:26;;;;;;;24.50;10.88;;;;;;;1.99;78.93;100848.22;1751913;82;21153;-68
2020/12/15 02:31:53;;;;;;;22.27;10.35;;;;;;;1.99;78.88;100852.27;1752546;82;21822;-68
2020/12/15 02:34:21;;;;;;;22.62;10.53;;;;;;;1.98;78.93;100845.16;1752585;81;21144;-68
2020/12/15 02:36:48;;;;;;;27.75;11.85;;;;;;;1.94;78.96;100846.38;1752731;81;21419;-68
2020/12/15 02:39:18;;;;;;;28.02;12.55;;;;;;;1.97;79.13;100847.50;1752291;82;21117;-68
2020/12/15 02:41:53;;;;;;;26.30;10.90;;;;;;;1.99;79.21;100848.22;1749348;81;21525;-69
2020/12/15 02:44:21;;;;;;;23.60;9.85;;;;;;;2.03;79.24;100848.81;1752650;81;21129;-68
2020/12/15 02:46:51;;;;;;;24.45;11.88;;;;;;;2.04;79.23;100843.28;1752481;81;21437;-68
2020/12/15 02:49:18;;;;;;;22.82;10.82;;;;;;;2.02;79.09;100851.16;1752736;81;21160;-68
2020/12/15 02:51:48;;;;;;;23.30;10.88;;;;;;;1.98;79.15;100854.61;1752595;82;21391;-68
2020/12/15 02:54:23;;;;;;;20.10;9.90;;;;;;;1.98;79.21;100857.81;1750984;81;21188;-69
2020/12/15 02:56:51;;;;;;;22.30;9.38;;;;;;;1.96;79.19;100853.03;1752634;82;21922;-70
2020/12/15 02:59:18;;;;;;;22.30;10.20;;;;;;;1.96;79.20;100854.38;1724996;82;21347;-68
2020/12/15 03:01:48;;;;;;;19.17;8.93;;;;;;;1.93;79.09;100854.12;1752523;82;21806;-68
2020/12/15 03:04:16;;;;;;;17.77;9.43;;;;;;;1.89;79.19;100852.17;1752658;82;21304;-68
2020/12/15 03:06:46;;;;;;;20.15;9.85;;;;;;;1.89;79.27;100851.31;1752341;81;21917;-69
2020/12/15 03:09:15;;;;;;;21.63;9.67;;;;;;;1.85;79.24;100852.08;1751844;81;21791;-70
2020/12/15 03:11:45;;;;;;;21.37;9.23;;;;;;;1.84;79.34;100852.20;1751805;81;21121;-68
2020/12/15 03:14:14;;;;;;;20.05;10.10;;;;;;;1.86;79.42;100847.53;1751556;82;21197;-69
2020/12/15 03:16:42;;;;;;;22.48;10.70;;;;;;;1.87;79.41;100843.84;1752601;81;21847;-68
2020/12/15 03:19:10;;;;;;;20.88;10.18;;;;;;;1.87;79.47;100845.19;1752927;81;21837;-68
2020/12/15 03:21:37;;;;;;;18.12;9.65;;;;;;;1.87;79.46;100851.94;1752496;81;21661;-68
2020/12/15 03:24:05;;;;;;;19.23;9.10;;;;;;;1.87;79.49;100849.23;1752636;81;21168;-68
2020/12/15 03:26:33;;;;;;;20.75;9.85;;;;;;;1.87;79.46;100853.30;1724909;82;21137;-70
2020/12/15 03:29:03;;;;;;;19.23;9.48;;;;;;;1.81;79.41;100858.73;1752440;81;21216;-69
2020/12/15 03:31:32;;;;;;;17.98;9.60;;;;;;;1.80;79.54;100861.06;1752605;81;21144;-68
2020/12/15 03:33:59;;;;;;;18.65;9.13;;;;;;;1.82;79.62;100866.34;1752649;81;21137;-68
2020/12/15 03:36:27;;;;;;;17.98;9.03;;;;;;;1.83;79.62;100866.70;1752619;82;21272;-67
2020/12/15 03:38:55;;;;;;;22.07;9.35;;;;;;;1.79;79.61;100870.65;1752790;81;21186;-68
2020/12/15 03:41:25;;;;;;;22.82;9.80;;;;;;;1.77;79.70;100872.62;1752370;81;21117;-68
2020/12/15 03:44:03;;;;;;;22.67;10.55;;;;;;;1.79;79.76;100870.65;1750836;81;21157;-69
2020/12/15 03:46:35;;;;;;;19.90;10.50;;;;;;;1.82;79.85;100870.39;1750794;81;21314;-69
2020/12/15 03:49:04;;;;;;;20.70;10.75;;;;;;;1.84;79.81;100871.11;1752663;81;21132;-69
2020/12/15 03:51:34;;;;;;;25.75;11.60;;;;;;;1.83;79.77;100882.91;1752382;82;21121;-69
2020/12/15 03:54:12;;;;;;;22.98;10.68;;;;;;;1.79;79.79;100885.02;1730563;81;21448;-69
2020/12/15 03:56:41;;;;;;;22.13;11.12;;;;;;;1.78;79.81;100882.44;1749307;81;21148;-69
2020/12/15 03:59:09;;;;;;;21.30;10.88;;;;;;;1.78;79.91;100882.44;1752581;81;21391;-68
2020/12/15 04:01:36;;;;;;;22.85;10.70;;;;;;;1.80;80.01;100893.98;1752534;82;21433;-67
2020/12/15 04:04:04;;;;;;;23.55;10.45;;;;;;;1.82;80.05;100897.41;1723551;82;21311;-68
2020/12/15 04:06:34;;;;;;;20.95;10.30;;;;;;;1.83;80.05;100899.13;1748648;82;21137;-70
2020/12/15 04:09:03;;;;;;;21.62;10.58;;;;;;;1.85;80.09;100890.39;1743539;82;21196;-68
2020/12/15 04:11:31;;;;;;;18.50;9.75;;;;;;;1.89;80.12;100899.45;1744742;81;21445;-68
2020/12/15 04:13:58;;;;;;;20.45;10.08;;;;;;;1.93;80.11;100900.05;1744558;82;21395;-68
2020/12/15 04:16:26;;;;;;;19.50;9.85;;;;;;;1.91;80.01;100897.98;1744635;81;21414;-68
2020/12/15 04:18:55;;;;;;;21.68;10.58;;;;;;;1.93;80.05;100905.46;1742549;81;21121;-68
2020/12/15 04:21:23;;;;;;;20.55;10.28;;;;;;;1.91;79.93;100902.03;1744582;81;21403;-68
2020/12/15 04:23:51;;;;;;;24.23;11.43;;;;;;;1.90;79.93;100903.02;1744638;81;21137;-68
2020/12/15 04:26:20;;;;;;;23.65;10.65;;;;;;;1.88;79.96;100908.55;1744661;81;21200;-68
2020/12/15 04:28:49;;;;;;;26.05;11.80;;;;;;;1.86;79.98;100912.38;1744260;81;21141;-69
2020/12/15 04:31:17;;;;;;;28.25;11.35;;;;;;;1.81;80.03;100923.56;1744730;81;21323;-67
2020/12/15 04:33:45;;;;;;;26.15;11.35;;;;;;;1.74;80.10;100921.51;1744717;82;21197;-68
2020/12/15 04:36:13;;;;;;;26.65;12.68;;;;;;;1.76;80.34;100917.69;1744583;81;21837;-68
2020/12/15 04:38:41;;;;;;;28.67;12.05;;;;;;;1.81;80.42;100917.30;1744717;81;21152;-68
2020/12/15 04:41:11;;;;;;;27.50;12.40;;;;;;;1.81;80.41;100920.86;1743462;82;21267;-69
2020/12/15 04:43:42;;;;;;;28.35;13.43;;;;;;;1.81;80.44;100924.91;1693329;82;21177;-68
2020/12/15 04:46:11;;;;;;;28.67;13.62;;;;;;;1.80;80.45;100923.69;1744712;81;21896;-68
2020/12/15 04:48:44;;;;;;;24.90;11.85;;;;;;;1.82;80.50;100927.12;1744563;81;21133;-69
2020/12/15 04:51:13;;;;;;;23.87;11.63;;;;;;;1.85;80.53;100938.53;1715966;82;21192;-68
2020/12/15 04:53:47;;;;;;;25.88;12.55;;;;;;;1.90;80.53;100928.69;1714640;82;21427;-69
2020/12/15 04:56:31;;;;;;;24.70;13.03;;;;;;;1.94;80.53;100927.94;1743833;81;21109;-68
2020/12/15 04:59:00;;;;;;;29.35;12.35;;;;;;;1.93;80.44;100920.81;1742133;81;21280;-68
2020/12/15 05:01:30;;;;;;;25.40;11.63;;;;;;;1.95;80.48;100926.48;1744478;81;21915;-68
2020/12/15 05:03:59;;;;;;;25.82;11.48;;;;;;;1.95;80.36;100933.24;1742486;81;21189;-69
2020/12/15 05:06:28;;;;;;;26.85;12.63;;;;;;;1.95;80.35;100931.00;1667325;82;21392;-70
2020/12/15 05:08:58;;;;;;;27.10;12.63;;;;;;;1.97;80.35;100939.38;1739454;82;21866;-68
2020/12/15 05:11:26;;;;;;;27.67;11.63;;;;;;;1.98;80.43;100927.58;1695274;82;21371;-69
2020/12/15 05:13:58;;;;;;;24.40;12.55;;;;;;;1.99;80.34;100940.11;1733234;82;21288;-69
2020/12/15 05:16:38;;;;;;;28.55;12.68;;;;;;;1.90;80.19;100941.70;1739417;81;21830;-69
2020/12/15 05:19:11;;;;;;;26.25;12.90;;;;;;;1.89;80.32;100940.48;1709967;81;21157;-69
2020/12/15 05:21:59;;;;;;;28.07;12.68;;;;;;;1.88;80.28;100954.48;1738529;82;21853;-68
2020/12/15 05:24:29;;;;;;;30.08;13.95;;;;;;;1.88;80.43;100945.52;1738791;82;21131;-68
2020/12/15 05:26:58;;;;;;;31.82;14.18;;;;;;;1.89;80.56;100949.94;1739267;82;21142;-68
2020/12/15 05:29:27;;;;;;;30.08;13.50;;;;;;;1.92;80.64;100952.38;1739283;81;21193;-70
2020/12/15 05:32:09;;;;;;;26.75;11.70;;;;;;;1.97;80.63;100954.23;1737058;82;21309;-69
2020/12/15 05:34:41;;;;;;;21.55;10.82;;;;;;;1.98;80.54;100953.25;1737041;82;21153;-68
2020/12/15 05:37:10;;;;;;;23.85;10.78;;;;;;;1.93;80.47;100955.94;1703871;82;21273;-69
2020/12/15 05:39:46;;;;;;;20.80;10.40;;;;;;;1.90;80.55;100959.77;1710963;82;21157;-69
2020/12/15 05:42:16;;;;;;;24.02;10.93;;;;;;;1.87;80.60;100964.93;1738265;81;21896;-70
2020/12/15 05:44:44;;;;;;;30.70;11.33;;;;;;;1.86;80.62;100973.16;1739115;82;21455;-69
2020/12/15 05:47:13;;;;;;;24.47;10.20;;;;;;;1.87;80.69;100972.17;1738773;82;21146;-69
2020/12/15 05:49:48;;;;;;;28.90;12.30;;;;;;;1.84;80.61;100976.48;1738621;81;21849;-69
2020/12/15 05:52:15;;;;;;;32.50;13.55;;;;;;;1.80;80.63;100976.37;1739215;82;21164;-69
2020/12/15 05:54:43;;;;;;;35.00;14.98;;;;;;;1.76;80.70;100982.53;1739124;81;21261;-68
2020/12/15 05:57:10;;;;;;;29.90;12.82;;;;;;;1.75;80.85;100989.41;1739133;81;21133;-69
2020/12/15 05:59:38;;;;;;;30.15;13.20;;;;;;;1.77;81.03;100992.34;1739074;82;21199;-69
2020/12/15 06:02:10;;;;;;;34.05;13.30;;;;;;;1.78;81.01;100984.61;1739179;81;21157;-68
2020/12/15 06:04:38;;;;;;;26.05;9.55;;;;;;;1.79;81.03;100993.57;1739149;82;21180;-69
2020/12/15 06:09:47;;;;;;;23.60;11.22;;;;;;;1.86;81.09;101002.89;1743066;81;21308;-68
2020/12/15 06:12:14;;;;;;;26.97;14.30;;;;;;;1.84;81.01;101008.42;1743844;81;21364;-70
2020/12/15 06:14:42;;;;;;;25.40;13.60;;;;;;;1.83;81.07;101015.30;1744038;82;21388;-68
2020/12/15 06:17:09;;;;;;;23.05;11.78;;;;;;;1.85;81.11;101011.98;1743893;81;21308;-67
2020/12/15 06:19:37;;;;;;;22.17;10.93;;;;;;;1.88;81.09;101015.28;1743704;81;21409;-68
2020/12/15 06:22:04;;;;;;;24.65;11.68;;;;;;;1.92;81.08;101025.34;1743837;81;21379;-68
2020/12/15 06:24:38;;;;;;;25.52;11.12;;;;;;;1.97;81.11;101030.40;1722718;82;21157;-68
2020/12/15 06:27:08;;;;;;;24.75;11.08;;;;;;;1.98;81.03;101026.22;1743819;81;21170;-69
2020/12/15 06:29:40;;;;;;;26.35;11.33;;;;;;;2.01;81.00;101033.22;1744097;81;21316;-73
2020/12/15 06:32:17;;;;;;;29.57;11.45;;;;;;;2.03;80.89;101026.70;1746080;81;21183;-73
2020/12/15 06:34:50;;;;;;;29.98;12.78;;;;;;;2.07;80.81;101038.11;1746069;81;21172;-73
2020/12/15 06:37:23;;;;;;;34.73;15.63;;;;;;;2.08;80.77;101031.72;1745859;81;21168;-72
2020/12/15 06:40:02;;;;;;;31.60;13.65;;;;;;;2.08;80.72;101033.92;1746155;81;21268;-73
2020/12/15 06:42:36;;;;;;;23.47;11.48;;;;;;;2.10;80.76;101038.71;1746055;81;21234;-74
2020/12/15 06:45:07;;;;;;;34.70;16.32;;;;;;;2.12;80.62;101037.23;1745906;81;21138;-74
2020/12/15 06:47:49;;;;;;;38.17;16.57;;;;;;;2.10;80.50;101041.91;1745913;81;21232;-73
2020/12/15 06:50:18;;;;;;;27.73;13.38;;;;;;;2.11;80.49;101049.03;1745463;81;21117;-73
2020/12/15 06:52:47;;;;;;;28.32;13.83;;;;;;;2.11;80.45;101058.50;1745889;81;21145;-72
2020/12/15 06:55:15;;;;;;;30.40;14.87;;;;;;;2.11;80.49;101059.84;1745942;81;21320;-73
2020/12/15 06:57:43;;;;;;;29.15;13.48;;;;;;;2.12;80.54;101052.96;1745890;81;21790;-74
2020/12/15 09:10:28;;;;;;;35.63;15.63;;;;;;;2.72;78.61;101092.09;1810315;79;22213;-73
2020/12/15 09:13:08;;;;;;;35.73;15.58;;;;;;;2.70;78.58;101093.21;1742278;81;21169;-70
2020/12/15 09:15:55;;;;;;;32.38;16.23;;;;;;;2.73;78.46;101091.59;1742595;80;21178;-69
2020/12/15 09:18:55;;;;;;;30.97;13.70;;;;;;;2.77;78.37;101087.14;1691989;84;21349;-69
2020/12/15 09:21:29;;;;;;;28.10;13.60;;;;;;;2.77;78.11;101096.62;1692830;84;21155;-70
2020/12/15 09:23:59;;;;;;;34.10;14.55;;;;;;;2.74;78.06;101094.17;1698749;83;21531;-69
2020/12/15 09:26:39;;;;;;;33.78;15.58;;;;;;;2.75;78.06;101088.27;1693054;83;22070;-68
2020/12/15 09:35:09;;;;;;;30.17;13.98;;;;;;;2.85;77.95;101095.47;1688087;83;21193;-71
2020/12/15 09:37:46;;;;;;;36.05;14.33;;;;;;;2.84;77.76;101103.22;1703169;83;21163;-69
2020/12/15 09:40:40;;;;;;;32.00;12.65;;;;;;;2.76;77.68;101100.81;1689498;83;21226;-69
2020/12/15 09:43:10;;;;;;;29.67;11.73;;;;;;;2.72;77.82;101095.30;1698011;83;21162;-72
2020/12/15 09:45:44;;;;;;;32.98;13.43;;;;;;;2.74;78.03;101096.02;1691959;83;21420;-69
2020/12/15 09:48:18;;;;;;;30.90;14.23;;;;;;;2.74;77.94;101096.88;1698123;83;21436;-70
2020/12/15 09:50:52;;;;;;;29.67;13.58;;;;;;;2.74;78.00;101098.73;1690309;83;21164;-69
2020/12/15 09:53:25;;;;;;;36.40;14.15;;;;;;;2.74;78.16;101095.53;1698399;83;21591;-68
2020/12/15 09:55:55;;;;;;;30.15;13.08;;;;;;;2.77;78.19;101088.50;1690325;83;21769;-70
2020/12/15 09:58:24;;;;;;;29.32;14.07;;;;;;;2.81;78.10;101087.74;1683530;84;21279;-69
2020/12/15 10:01:00;;;;;;;28.60;12.93;;;;;;;2.81;78.07;101080.48;1703464;83;21219;-70
2020/12/15 10:03:31;;;;;;;30.57;13.60;;;;;;;2.84;78.20;101090.19;1696306;84;21760;-67
2020/12/15 10:06:04;;;;;;;32.03;14.53;;;;;;;2.85;78.12;101086.00;1685913;83;21286;-66
2020/12/15 10:08:34;;;;;;;36.63;15.40;;;;;;;2.89;78.08;101085.73;1674306;84;21755;-67
2020/12/15 10:11:03;;;;;;;27.00;13.40;;;;;;;2.90;78.11;101083.39;1671966;83;21190;-68
2020/12/15 10:13:35;;;;;;;34.78;15.08;;;;;;;3.00;78.08;101091.08;1712244;83;21873;-69
2020/12/15 10:16:31;;;;;;;36.98;15.68;;;;;;;2.98;77.71;101083.59;1718663;83;21199;-70
2020/12/15 10:20:01;;;;;;;36.77;16.52;;;;;;;2.99;77.77;101085.30;1698374;83;21162;-69
2020/12/15 10:22:31;;;;;;;48.00;22.00;;;;;;;3.01;77.82;101083.33;1659551;85;21141;-68
2020/12/15 10:25:11;;;;;;;42.05;20.25;;;;;;;3.03;77.88;101078.64;1680154;85;21182;-66
2020/12/15 10:27:41;;;;;;;44.53;19.20;;;;;;;3.06;77.87;101083.29;1677266;85;21384;-67
2020/12/15 10:30:15;;;;;;;31.07;14.15;;;;;;;3.09;77.81;101083.52;1679893;83;21812;-67
2020/12/15 10:32:48;;;;;;;34.10;16.17;;;;;;;3.14;77.79;101081.27;1653275;86;21749;-67
2020/12/15 10:35:19;;;;;;;40.45;18.40;;;;;;;3.15;77.66;101084.34;1652026;86;21897;-67
2020/12/15 10:41:17;;;;;;;35.80;17.12;;;;;;;3.20;77.89;101084.80;1657476;86;21125;-68
2020/12/15 10:43:45;;;;;;;38.63;16.20;;;;;;;3.23;77.81;101083.67;1668312;85;21915;-68
2020/12/15 10:46:28;;;;;;;34.80;15.03;;;;;;;3.25;77.84;101086.64;1677747;85;21152;-68
2020/12/15 10:49:16;;;;;;;36.90;16.00;;;;;;;3.28;77.61;101095.00;1702836;83;21293;-68
2020/12/15 10:51:52;;;;;;;33.95;15.68;;;;;;;3.23;77.55;101085.88;1683829;85;21163;-68
2020/12/15 10:54:46;;;;;;;34.35;16.80;;;;;;;3.22;77.42;101089.59;1685005;85;21221;-68
2020/12/15 10:57:48;;;;;;;39.13;18.00;;;;;;;3.17;77.42;101092.69;1685734;85;21181;-68
2020/12/15 11:00:43;;;;;;;43.95;19.60;;;;;;;3.18;77.48;101089.48;1684771;85;21816;-68
2020/12/15 11:03:14;;;;;;;41.15;19.37;;;;;;;3.25;77.37;101092.52;1685063;84;21623;-68
2020/12/15 11:05:51;;;;;;;42.00;19.30;;;;;;;3.29;77.25;101094.00;1735698;81;21169;-68
2020/12/15 11:08:34;;;;;;;41.85;18.92;;;;;;;3.30;77.24;101091.16;1740431;81;21292;-68
2020/12/15 11:11:23;;;;;;;46.23;20.70;;;;;;;3.33;77.25;101093.60;1746566;82;21360;-67
2020/12/15 11:14:09;;;;;;;;;;;;;;;;;;;;;
2020/12/15 11:17:00;;;;;;;49.05;20.90;;;;;;;3.45;77.14;101099.80;1717309;83;21252;-67
2020/12/15 11:19:40;;;;;;;53.35;23.02;;;;;;;3.50;76.96;101100.24;1720510;83;21340;-67
2020/12/15 11:22:15;;;;;;;52.88;22.87;;;;;;;3.50;76.91;101103.81;1720262;83;21146;-67
2020/12/15 11:25:18;;;;;;;53.73;22.93;;;;;;;3.52;76.89;101108.23;1742224;81;21684;-67
2020/12/15 11:27:59;;;;;;;56.42;23.62;;;;;;;3.52;76.92;101102.33;1761188;81;21159;-67
2020/12/15 11:33:49;;;;;;;51.02;21.77;;;;;;;3.55;76.86;101109.33;1752867;81;21612;-67
2020/12/15 11:36:33;;;;;;;48.78;20.90;;;;;;;3.55;76.70;101116.09;1734742;81;21174;-67
2020/12/15 11:39:19;;;;;;;52.50;22.90;;;;;;;3.53;76.64;101104.53;1713381;81;21819;-67
2020/12/15 11:42:08;;;;;;;49.40;20.92;;;;;;;3.48;76.67;101117.13;1716004;82;21582;-67
2020/12/15 11:44:38;;;;;;;46.40;21.77;;;;;;;3.46;76.68;101121.83;1720528;82;21181;-66
2020/12/15 11:47:35;;;;;;;49.45;21.17;;;;;;;3.41;76.82;101122.23;1746242;82;21146;-66
2020/12/15 11:50:19;;;;;;;48.78;21.20;;;;;;;3.40;76.95;101123.22;1681842;84;21162;-66
2020/12/15 11:52:47;;;;;;;48.40;20.65;;;;;;;3.40;76.89;101123.72;1694929;83;21415;-66
2020/12/15 11:55:15;;;;;;;49.75;21.40;;;;;;;3.37;76.89;101126.20;1698768;83;21438;-67
2020/12/15 11:57:58;;;;;;;45.33;21.73;;;;;;;3.36;76.96;101131.25;1700053;83;21174;-67
2020/12/15 12:01:35;;;;;;;45.93;21.43;;;;;;;3.37;77.10;101132.97;1697825;83;21932;-68
2020/12/15 12:03:34;;;;;;;46.98;19.82;;;;;;;3.33;77.03;101128.81;1626204;83;21186;-67
2020/12/15 12:06:54;;;;;;;42.38;19.30;;;;;;;3.26;77.13;101132.19;1676938;83;21179;-66
2020/12/15 12:09:41;;;;;;;41.23;20.00;;;;;;;3.24;77.37;101124.66;1707637;83;21254;-66
2020/12/15 12:12:18;;;;;;;44.10;20.27;;;;;;;3.30;77.74;101130.92;1683938;83;21178;-66
2020/12/15 12:14:54;;;;;;;43.98;19.87;;;;;;;3.30;77.74;101130.92;1703463;83;21170;-66
2020/12/15 12:17:23;;;;;;;51.60;21.48;;;;;;;3.37;77.92;101132.11;1689643;83;21354;-66
2020/12/15 12:19:51;;;;;;;44.98;19.15;;;;;;;3.43;77.83;101141.06;1715797;83;21300;-66
2020/12/15 12:25:10;;;;;;;41.85;20.57;;;;;;;3.42;77.43;101142.91;1692974;84;21271;-66
2020/12/15 12:31:41;;;;;;;43.98;18.37;;;;;;;3.33;77.28;101143.70;1533029;92;21425;-67
2020/12/15 12:36:56;;;;;;;41.83;18.62;;;;;;;3.26;77.39;101149.30;1558472;92;21264;-67
2020/12/15 12:39:32;;;;;;;43.73;19.57;;;;;;;3.21;77.31;101140.67;1490919;96;21304;-67
2020/12/15 12:42:32;;;;;;;;;;;;;;;;;;;;;
2020/12/15 12:49:10;;;;;;;37.53;16.77;;;;;;;3.19;77.62;101164.32;1505583;95;21335;-66
2020/12/15 12:51:59;;;;;;;39.90;17.00;;;;;;;3.17;77.64;101159.03;1481328;95;21417;-66
2020/12/15 12:54:49;;;;;;;44.27;18.48;;;;;;;3.15;77.66;101166.92;1517192;94;21250;-67
2020/12/15 12:57:17;;;;;;;46.68;19.45;;;;;;;3.12;77.72;101162.63;1479886;95;21179;-65
2020/12/15 12:59:50;;;;;;;43.95;18.50;;;;;;;3.12;77.85;101161.77;1534962;89;21248;-66
2020/12/15 13:02:19;;;;;;;45.95;18.50;;;;;;;3.16;77.92;101168.15;1591782;89;21265;-66
2020/12/15 13:05:16;;;;;;;40.33;16.95;;;;;;;3.17;77.80;101169.01;1598455;89;21240;-68
2020/12/15 13:08:02;;;;;;;45.52;21.77;;;;;;;3.18;77.80;101176.14;1587120;87;21182;-69
2020/12/15 13:11:01;;;;;;;39.63;19.85;;;;;;;3.18;77.80;101178.35;1561359;88;21192;-68
2020/12/15 13:17:32;;;;;;;45.13;20.97;;;;;;;3.19;77.92;101177.86;1486332;95;21262;-68
2020/12/15 13:20:24;;;;;;;58.00;23.83;;;;;;;3.19;77.85;101178.72;1538993;92;21549;-68
2020/12/15 13:23:00;;;;;;;49.53;22.42;;;;;;;3.22;77.95;101178.95;1557626;92;21346;-68
2020/12/15 13:25:32;;;;;;;44.65;20.00;;;;;;;3.26;77.93;101173.67;1557634;92;21218;-67
2020/12/15 13:28:09;;;;;;;40.80;17.65;;;;;;;3.24;77.82;101179.67;1572337;90;21731;-67
2020/12/15 13:30:48;;;;;;;37.30;15.83;;;;;;;3.23;77.72;101179.31;1579276;91;21711;-68
2020/12/15 13:33:48;;;;;;;;;;;;;;;;;;;;;
2020/12/15 13:36:19;;;;;;;42.43;17.67;;;;;;;3.09;77.49;101180.98;1570197;90;21425;-68
2020/12/15 13:38:47;;;;;;;43.20;18.82;;;;;;;3.01;77.66;101184.84;1553748;92;22083;-66
2020/12/15 13:41:19;;;;;;;44.30;20.08;;;;;;;2.99;77.88;101191.73;1602071;88;21194;-66
2020/12/15 13:43:55;;;;;;;52.43;21.65;;;;;;;2.99;77.96;101191.73;1588550;89;21222;-67
2020/12/15 13:46:41;;;;;;;49.03;20.70;;;;;;;2.96;78.14;101196.06;1590574;90;21357;-67
2020/12/15 13:49:24;;;;;;;51.08;20.85;;;;;;;2.96;78.23;101197.91;1589538;89;21807;-67
2020/12/15 13:51:59;;;;;;;44.38;19.70;;;;;;;2.98;78.32;101194.58;1695508;83;21170;-67
2020/12/15 13:54:34;;;;;;;38.10;16.97;;;;;;;3.01;78.32;101197.02;1717103;83;21166;-66
2020/12/15 13:57:09;;;;;;;57.93;24.23;;;;;;;3.01;78.34;101202.44;1745825;81;21197;-69
2020/12/15 13:59:43;;;;;;;45.88;20.68;;;;;;;2.95;78.37;101204.30;1710773;83;21356;-70
2020/12/15 14:02:36;;;;;;;41.92;17.02;;;;;;;2.94;78.52;101203.45;1692637;84;21825;-71
2020/12/15 14:05:13;;;;;;;36.25;16.12;;;;;;;2.96;78.55;101208.73;1659018;85;21653;-68
2020/12/15 14:07:59;;;;;;;39.18;18.52;;;;;;;2.94;78.43;101218.34;1688552;83;21220;-68
2020/12/15 14:10:38;;;;;;;35.60;16.52;;;;;;;2.95;78.53;101226.82;1669518;85;21656;-66
2020/12/15 14:13:32;;;;;;;39.63;19.30;;;;;;;2.98;78.58;101208.11;1677621;83;21596;-68
2020/12/15 14:16:06;;;;;;;42.48;20.12;;;;;;;2.94;78.46;101214.77;1687558;84;21285;-67
2020/12/15 14:18:43;;;;;;;39.10;16.97;;;;;;;2.97;78.51;101223.49;1689519;84;21198;-68
2020/12/15 14:21:31;;;;;;;41.40;17.60;;;;;;;2.98;78.44;101221.64;1689885;84;21331;-69
2020/12/15 14:27:22;;;;;;;44.67;19.80;;;;;;;2.93;78.49;101231.50;1605051;84;21190;-67
2020/12/15 14:30:07;;;;;;;40.15;18.02;;;;;;;2.96;78.62;101232.59;1693963;83;21114;-68
2020/12/15 14:32:37;;;;;;;38.28;17.32;;;;;;;2.97;78.55;101235.67;1687543;84;21380;-66
2020/12/15 14:35:22;;;;;;;40.30;16.75;;;;;;;2.99;78.60;101236.41;1670443;85;21513;-67
2020/12/15 14:38:08;;;;;;;;;;;;;;;;;;;;;